Terminal Aerodrome Forecast
Issued by NWS Boston, MA

Home | Current Version | Previous Version | Text Only | Print | Product List | Glossary On
Versions: 1 2 3 4 5 6 7 8 9 10 11 12 13 14 15 16 17 18 19 20 21 22 23 24 25 26 27 28 29 30 31 32 33 34 35 36 37 38 39 40 41 42 43 44 45 46 47 48 49 50
013
FTUS41 KBOX 240002 AAA
TAFPVD
TAF AMD
KPVD 240002Z 2400/2424 30010G18KT P6SM VCTS SCT070CB
     FM240030 31020G40KT P6SM VCTS BKN050CB
     FM240100 29009KT P6SM SCT100
     FM240800 31004KT P6SM FEW250
     FM241700 29008KT P6SM FEW250
     FM242000 24009KT P6SM FEW250=

USA.gov is the U.S. government's official web portal to all federal, state and local government web resources and services.